Aviation Digital Data Service (ADDS)

Output produced by METARs form (0310 UTC 18 August 2017)
found at http://www.aviationweather.gov/adds/metars/
 
MPPA 180300Z 00000KT 9999 FEW018 26/// Q1010
TAF MPPA 172200Z 1724/1906 36004KT 9999 SCT018 SCT100 
     TEMPO 1800/1804 30005KT 9999 SCT016CB SCT090 
     PROB30 
     TEMPO 1818/1822 VRB02KT 6000 TSRA FEW015CB SCT020
       
MPBO 180100Z 00000KT 9999 FEW020 BKN100 Q1013
MPDA 180300Z 00000KT(E) 9999 FEW015 ///// Q1010
TAF MPDA 171700Z 1718/1806 18008KT 9999 FEW020 SCT100 
     TEMPO 1801/1804 VRB02KT 9999 SCT025
       
MPMG 180300Z 33005KT 9999 FEW016 27/25 Q1011 NOSIG
TAF MPMG 171700Z 1718/1806 34006KT 9999 SCT018 
     PROB30 
     TEMPO 1719/1723 7000 -TSRA SCT017CB SCT090 
     TEMPO 1723/1803 VRB02KT 9999 SCT020
       
MPTO 180300Z 29005KT 9999 FEW018 26/24 Q1011 NOSIG
TAF MPTO 172200Z 1724/1906 30004KT 9000 SCT018 SCT100 
     TEMPO 1800/1804 03005KT 9999 SCT016CB SCT090 
     TEMPO 1818/1822 00000KT 6000 TSRA FEW015CB SCT020